SHT8K EGLL-EGPH
Flight info
| Callsign | SHT8K |
|---|---|
| Flight time | 0h 55m |
| Altitude | 32000 |
| Route | ULTIB T420 TNT UN57 POL UN601 RIBEL DCT INPIP |
| Aircraft | A320/M-SDE3FGHIRWY/LB1 |
Departure
| Time | 2026-05-06 18:20 |
|---|---|
| Airport | London Heathrow Airport (EGLL) |
Arrival
| Time | 2026-05-06 19:16 |
|---|---|
| Airport | Edinburgh Airport (EGPH) |
| Time | Latitude | Longitude | Altitude | Speed | Heading |
|---|---|---|---|---|---|
| 2026-05-06 17:59 | 51.47186 | -0.48587 | 88 ft | 0 kts | 269° |
| 2026-05-06 18:10 | 51.47187 | -0.48567 | 90 ft | 2 kts | 270° |
| 2026-05-06 18:10 | 51.47187 | -0.48541 | 88 ft | 2 kts | 271° |
| 2026-05-06 18:11 | 51.47187 | -0.48514 | 88 ft | 2 kts | 269° |
| 2026-05-06 18:11 | 51.47187 | -0.48497 | 88 ft | 2 kts | 247° |
| 2026-05-06 18:11 | 51.47202 | -0.48473 | 92 ft | 2 kts | 178° |
| 2026-05-06 18:11 | 51.47218 | -0.48473 | 89 ft | 2 kts | 175° |
| 2026-05-06 18:12 | 51.47230 | -0.48473 | 89 ft | 0 kts | 175° |
| 2026-05-06 18:17 | 51.47229 | -0.48473 | 90 ft | 1 kts | 175° |
| 2026-05-06 18:17 | 51.47217 | -0.48473 | 89 ft | 3 kts | 179° |
| 2026-05-06 18:17 | 51.47178 | -0.48473 | 92 ft | 9 kts | 180° |
| 2026-05-06 18:17 | 51.47076 | -0.48476 | 88 ft | 18 kts | 180° |
| 2026-05-06 18:18 | 51.46940 | -0.48471 | 90 ft | 17 kts | 178° |
| 2026-05-06 18:18 | 51.46849 | -0.48470 | 92 ft | 11 kts | 180° |
| 2026-05-06 18:18 | 51.46758 | -0.48469 | 93 ft | 15 kts | 179° |
| 2026-05-06 18:18 | 51.46668 | -0.48467 | 94 ft | 12 kts | 179° |
| 2026-05-06 18:19 | 51.46571 | -0.48468 | 96 ft | 17 kts | 180° |
| 2026-05-06 18:19 | 51.46479 | -0.48369 | 94 ft | 20 kts | 89° |
| 2026-05-06 18:19 | 51.46481 | -0.48020 | 90 ft | 57 kts | 89° |
| 2026-05-06 18:19 | 51.46485 | -0.47042 | 92 ft | 114 kts | 90° |
| 2026-05-06 18:20 | 51.46486 | -0.45529 | 89 ft | 155 kts | 90° |
| 2026-05-06 18:20 | 51.46491 | -0.43762 | 546 ft | 154 kts | 85° |
| 2026-05-06 18:20 | 51.46487 | -0.42219 | 895 ft | 135 kts | 86° |
| 2026-05-06 18:20 | 51.46731 | -0.40673 | 1393 ft | 152 kts | 52° |
| 2026-05-06 18:21 | 51.47496 | -0.39357 | 1677 ft | 172 kts | 45° |
| 2026-05-06 18:21 | 51.48356 | -0.37826 | 1917 ft | 196 kts | 46° |
| 2026-05-06 18:21 | 51.49298 | -0.36080 | 2216 ft | 219 kts | 48° |
| 2026-05-06 18:21 | 51.50343 | -0.34108 | 2678 ft | 242 kts | 49° |
| 2026-05-06 18:22 | 51.51451 | -0.31997 | 3513 ft | 251 kts | 48° |
| 2026-05-06 18:22 | 51.52386 | -0.29603 | 4411 ft | 259 kts | 66° |
| 2026-05-06 18:22 | 51.52991 | -0.26839 | 5323 ft | 265 kts | 69° |
| 2026-05-06 18:22 | 51.53593 | -0.23994 | 5838 ft | 271 kts | 68° |
| 2026-05-06 18:23 | 51.54224 | -0.21141 | 5984 ft | 270 kts | 63° |
| 2026-05-06 18:23 | 51.55420 | -0.18915 | 6004 ft | 265 kts | 29° |
| 2026-05-06 18:23 | 51.57163 | -0.18226 | 6050 ft | 260 kts | 354° |
| 2026-05-06 18:23 | 51.58828 | -0.19276 | 6054 ft | 262 kts | 325° |
| 2026-05-06 18:24 | 51.60252 | -0.21110 | 6056 ft | 263 kts | 319° |
| 2026-05-06 18:24 | 51.61605 | -0.23093 | 6061 ft | 264 kts | 321° |
| 2026-05-06 18:24 | 51.63065 | -0.24886 | 6061 ft | 263 kts | 326° |
| 2026-05-06 18:24 | 51.64589 | -0.26518 | 6061 ft | 264 kts | 328° |
| 2026-05-06 18:25 | 51.66161 | -0.28080 | 6314 ft | 268 kts | 329° |
| 2026-05-06 18:25 | 51.67752 | -0.29614 | 7315 ft | 267 kts | 329° |
| 2026-05-06 18:25 | 51.69333 | -0.31128 | 8219 ft | 269 kts | 329° |
| 2026-05-06 18:25 | 51.70945 | -0.32671 | 9147 ft | 271 kts | 329° |
| 2026-05-06 18:26 | 51.72581 | -0.34242 | 9960 ft | 277 kts | 329° |
| 2026-05-06 18:26 | 51.74280 | -0.35876 | 10406 ft | 295 kts | 329° |
| 2026-05-06 18:26 | 51.76107 | -0.37639 | 10700 ft | 315 kts | 329° |
| 2026-05-06 18:26 | 51.78014 | -0.39482 | 11267 ft | 322 kts | 328° |
| 2026-05-06 18:27 | 51.79946 | -0.41353 | 11980 ft | 326 kts | 328° |
| 2026-05-06 18:27 | 51.81903 | -0.43249 | 12743 ft | 328 kts | 328° |
| 2026-05-06 18:27 | 51.83865 | -0.45153 | 13480 ft | 332 kts | 328° |
| 2026-05-06 18:27 | 51.85857 | -0.47084 | 14161 ft | 335 kts | 328° |
| 2026-05-06 18:28 | 51.87872 | -0.49033 | 14771 ft | 339 kts | 328° |
| 2026-05-06 18:28 | 51.89881 | -0.50978 | 15392 ft | 342 kts | 328° |
| 2026-05-06 18:28 | 51.91910 | -0.52952 | 15773 ft | 334 kts | 328° |
| 2026-05-06 18:28 | 51.93838 | -0.54832 | 15907 ft | 313 kts | 328° |
| 2026-05-06 18:29 | 51.95717 | -0.56670 | 16113 ft | 325 kts | 327° |
| 2026-05-06 18:29 | 51.97625 | -0.58537 | 16241 ft | 311 kts | 328° |
| 2026-05-06 18:29 | 51.99456 | -0.60325 | 16372 ft | 314 kts | 328° |
| 2026-05-06 18:29 | 52.01388 | -0.62222 | 16624 ft | 335 kts | 327° |
| 2026-05-06 18:30 | 52.03431 | -0.64232 | 16919 ft | 348 kts | 327° |
| 2026-05-06 18:30 | 52.05521 | -0.66285 | 17516 ft | 352 kts | 327° |
| 2026-05-06 18:30 | 52.07628 | -0.68355 | 18130 ft | 355 kts | 328° |
| 2026-05-06 18:30 | 52.09758 | -0.70448 | 18677 ft | 359 kts | 328° |
| 2026-05-06 18:31 | 52.11882 | -0.72537 | 19196 ft | 363 kts | 327° |
| 2026-05-06 18:31 | 52.14056 | -0.74677 | 19764 ft | 366 kts | 327° |
| 2026-05-06 18:31 | 52.16244 | -0.76829 | 20321 ft | 369 kts | 327° |
| 2026-05-06 18:31 | 52.18447 | -0.78999 | 20867 ft | 372 kts | 327° |
| 2026-05-06 18:32 | 52.20669 | -0.81191 | 21380 ft | 375 kts | 327° |
| 2026-05-06 18:32 | 52.22906 | -0.83408 | 21879 ft | 378 kts | 327° |
| 2026-05-06 18:32 | 52.25161 | -0.85648 | 22351 ft | 382 kts | 327° |
| 2026-05-06 18:32 | 52.27439 | -0.87908 | 22856 ft | 384 kts | 327° |
| 2026-05-06 18:33 | 52.29736 | -0.90188 | 23399 ft | 387 kts | 327° |
| 2026-05-06 18:33 | 52.32043 | -0.92483 | 23860 ft | 389 kts | 327° |
| 2026-05-06 18:33 | 52.34363 | -0.94792 | 24272 ft | 392 kts | 327° |
| 2026-05-06 18:33 | 52.36701 | -0.97123 | 24683 ft | 395 kts | 327° |
| 2026-05-06 18:34 | 52.39054 | -0.99475 | 25090 ft | 397 kts | 327° |
| 2026-05-06 18:34 | 52.41417 | -1.01838 | 25506 ft | 399 kts | 327° |
| 2026-05-06 18:34 | 52.43792 | -1.04221 | 25921 ft | 401 kts | 326° |
| 2026-05-06 18:34 | 52.46185 | -1.06624 | 26327 ft | 404 kts | 326° |
| 2026-05-06 18:35 | 52.48589 | -1.09037 | 26731 ft | 406 kts | 326° |
| 2026-05-06 18:35 | 52.51008 | -1.11467 | 27119 ft | 408 kts | 326° |
| 2026-05-06 18:35 | 52.53434 | -1.13912 | 27526 ft | 410 kts | 326° |
| 2026-05-06 18:35 | 52.55872 | -1.16372 | 27922 ft | 412 kts | 326° |
| 2026-05-06 18:36 | 52.58289 | -1.18817 | 28312 ft | 415 kts | 326° |
| 2026-05-06 18:36 | 52.60754 | -1.21308 | 28693 ft | 417 kts | 326° |
| 2026-05-06 18:36 | 52.63235 | -1.23811 | 29077 ft | 419 kts | 326° |
| 2026-05-06 18:36 | 52.65727 | -1.26330 | 29463 ft | 422 kts | 326° |
| 2026-05-06 18:37 | 52.68235 | -1.28870 | 29846 ft | 424 kts | 326° |
| 2026-05-06 18:37 | 52.70767 | -1.31438 | 30189 ft | 427 kts | 326° |
| 2026-05-06 18:37 | 52.73299 | -1.34011 | 30521 ft | 429 kts | 326° |
| 2026-05-06 18:37 | 52.75850 | -1.36609 | 30905 ft | 431 kts | 326° |
| 2026-05-06 18:38 | 52.78408 | -1.39221 | 31280 ft | 432 kts | 327° |
| 2026-05-06 18:38 | 52.80956 | -1.41830 | 31757 ft | 430 kts | 327° |
| 2026-05-06 18:38 | 52.83512 | -1.44455 | 32009 ft | 435 kts | 327° |
| 2026-05-06 18:38 | 52.86108 | -1.47121 | 32059 ft | 443 kts | 327° |
| 2026-05-06 18:39 | 52.91461 | -1.52615 | 32054 ft | 461 kts | 327° |
| 2026-05-06 18:40 | 52.99665 | -1.61054 | 33008 ft | 463 kts | 327° |
| 2026-05-06 18:40 | 53.02388 | -1.63858 | 32259 ft | 461 kts | 327° |
| 2026-05-06 18:40 | 53.05095 | -1.66598 | 32010 ft | 447 kts | 331° |
| 2026-05-06 18:40 | 53.07886 | -1.68640 | 32049 ft | 430 kts | 339° |
| 2026-05-06 18:41 | 53.10646 | -1.70331 | 32044 ft | 417 kts | 339° |
| 2026-05-06 18:41 | 53.16054 | -1.73617 | 32049 ft | 412 kts | 339° |
| 2026-05-06 18:42 | 53.21423 | -1.76915 | 32049 ft | 411 kts | 338° |
| 2026-05-06 18:42 | 53.26771 | -1.80252 | 32048 ft | 409 kts | 339° |
| 2026-05-06 18:43 | 53.32096 | -1.83592 | 32049 ft | 408 kts | 339° |
| 2026-05-06 18:43 | 53.37416 | -1.86926 | 32046 ft | 408 kts | 339° |
| 2026-05-06 18:44 | 53.42738 | -1.90263 | 32039 ft | 408 kts | 339° |
| 2026-05-06 18:44 | 53.48058 | -1.93610 | 32045 ft | 408 kts | 339° |
| 2026-05-06 18:45 | 53.53372 | -1.96965 | 32047 ft | 408 kts | 338° |
| 2026-05-06 18:45 | 53.58687 | -2.00334 | 32047 ft | 408 kts | 338° |
| 2026-05-06 18:46 | 53.63969 | -2.03682 | 32047 ft | 408 kts | 338° |
| 2026-05-06 18:46 | 53.69282 | -2.07069 | 32048 ft | 408 kts | 338° |
| 2026-05-06 18:47 | 53.74590 | -2.10470 | 32050 ft | 407 kts | 339° |
| 2026-05-06 18:47 | 53.79848 | -2.13971 | 32059 ft | 405 kts | 338° |
| 2026-05-06 18:48 | 53.85060 | -2.17580 | 32060 ft | 404 kts | 337° |
| 2026-05-06 18:48 | 53.90221 | -2.21157 | 32057 ft | 403 kts | 338° |
| 2026-05-06 18:49 | 53.95422 | -2.24724 | 32053 ft | 403 kts | 338° |
| 2026-05-06 18:49 | 54.00614 | -2.28287 | 32060 ft | 402 kts | 337° |
| 2026-05-06 18:50 | 54.05794 | -2.31851 | 32061 ft | 401 kts | 337° |
| 2026-05-06 18:50 | 54.10963 | -2.35428 | 32050 ft | 401 kts | 337° |
| 2026-05-06 18:51 | 54.16136 | -2.39008 | 32046 ft | 400 kts | 337° |
| 2026-05-06 18:51 | 54.21296 | -2.42597 | 32045 ft | 400 kts | 337° |
| 2026-05-06 18:52 | 54.26452 | -2.46190 | 32056 ft | 399 kts | 337° |
| 2026-05-06 18:52 | 54.31593 | -2.49778 | 32055 ft | 398 kts | 337° |
| 2026-05-06 18:53 | 54.36690 | -2.53355 | 32053 ft | 398 kts | 337° |
| 2026-05-06 18:53 | 54.41842 | -2.56978 | 32039 ft | 397 kts | 337° |
| 2026-05-06 18:54 | 54.46922 | -2.60554 | 32036 ft | 397 kts | 337° |
| 2026-05-06 18:54 | 54.52031 | -2.64165 | 32042 ft | 396 kts | 337° |
| 2026-05-06 18:54 | 54.54579 | -2.65966 | 31703 ft | 396 kts | 336° |
| 2026-05-06 18:55 | 54.57120 | -2.67765 | 31191 ft | 393 kts | 336° |
| 2026-05-06 18:55 | 54.59635 | -2.69550 | 30742 ft | 388 kts | 337° |
| 2026-05-06 18:55 | 54.62120 | -2.71315 | 30309 ft | 384 kts | 336° |
| 2026-05-06 18:55 | 54.64580 | -2.73068 | 29830 ft | 381 kts | 336° |
| 2026-05-06 18:56 | 54.67017 | -2.74809 | 29412 ft | 376 kts | 336° |
| 2026-05-06 18:56 | 54.69421 | -2.76525 | 28991 ft | 371 kts | 336° |
| 2026-05-06 18:56 | 54.71792 | -2.78215 | 28591 ft | 367 kts | 336° |
| 2026-05-06 18:56 | 54.74143 | -2.79896 | 28201 ft | 363 kts | 336° |
| 2026-05-06 18:57 | 54.76469 | -2.81563 | 27804 ft | 360 kts | 336° |
| 2026-05-06 18:57 | 54.78768 | -2.83212 | 27432 ft | 356 kts | 335° |
| 2026-05-06 18:57 | 54.81044 | -2.84846 | 27066 ft | 352 kts | 335° |
| 2026-05-06 18:57 | 54.83303 | -2.86472 | 26705 ft | 349 kts | 335° |
| 2026-05-06 18:58 | 54.84780 | -2.87536 | 26471 ft | 346 kts | 335° |
| 2026-05-06 18:58 | 54.86993 | -2.89128 | 26108 ft | 343 kts | 335° |
| 2026-05-06 18:58 | 54.89190 | -2.90709 | 25693 ft | 342 kts | 335° |
| 2026-05-06 18:58 | 54.91394 | -2.92302 | 25199 ft | 343 kts | 335° |
| 2026-05-06 18:59 | 54.93598 | -2.93899 | 24711 ft | 343 kts | 335° |
| 2026-05-06 18:59 | 54.95810 | -2.95502 | 24241 ft | 344 kts | 335° |
| 2026-05-06 18:59 | 54.97992 | -2.97084 | 23792 ft | 344 kts | 334° |
| 2026-05-06 18:59 | 55.00195 | -2.98682 | 23282 ft | 343 kts | 334° |
| 2026-05-06 19:00 | 55.02385 | -3.00274 | 22915 ft | 339 kts | 334° |
| 2026-05-06 19:00 | 55.04572 | -3.01864 | 22281 ft | 342 kts | 334° |
| 2026-05-06 19:00 | 55.06763 | -3.03456 | 21800 ft | 341 kts | 334° |
| 2026-05-06 19:00 | 55.08945 | -3.05044 | 21328 ft | 339 kts | 334° |
| 2026-05-06 19:01 | 55.11122 | -3.06636 | 20853 ft | 338 kts | 334° |
| 2026-05-06 19:01 | 55.13287 | -3.08223 | 20368 ft | 337 kts | 334° |
| 2026-05-06 19:01 | 55.15448 | -3.09807 | 19902 ft | 336 kts | 334° |
| 2026-05-06 19:01 | 55.17611 | -3.11391 | 19470 ft | 335 kts | 334° |
| 2026-05-06 19:02 | 55.19730 | -3.12939 | 19256 ft | 326 kts | 334° |
| 2026-05-06 19:02 | 55.21809 | -3.14459 | 18872 ft | 321 kts | 334° |
| 2026-05-06 19:02 | 55.23862 | -3.15964 | 18207 ft | 319 kts | 333° |
| 2026-05-06 19:02 | 55.25898 | -3.17462 | 17442 ft | 316 kts | 333° |
| 2026-05-06 19:03 | 55.27924 | -3.18952 | 16744 ft | 315 kts | 335° |
| 2026-05-06 19:03 | 55.30046 | -3.19961 | 16177 ft | 320 kts | 349° |
| 2026-05-06 19:03 | 55.32258 | -3.20065 | 15780 ft | 317 kts | 1° |
| 2026-05-06 19:03 | 55.34450 | -3.19731 | 15073 ft | 316 kts | 2° |
| 2026-05-06 19:04 | 55.36633 | -3.19390 | 14489 ft | 312 kts | 2° |
| 2026-05-06 19:04 | 55.38783 | -3.19050 | 13969 ft | 308 kts | 2° |
| 2026-05-06 19:04 | 55.40879 | -3.18717 | 13425 ft | 305 kts | 2° |
| 2026-05-06 19:04 | 55.42988 | -3.18386 | 12911 ft | 305 kts | 2° |
| 2026-05-06 19:05 | 55.45116 | -3.18054 | 12457 ft | 307 kts | 2° |
| 2026-05-06 19:05 | 55.47233 | -3.17721 | 12001 ft | 304 kts | 2° |
| 2026-05-06 19:05 | 55.49328 | -3.17392 | 11400 ft | 301 kts | 3° |
| 2026-05-06 19:05 | 55.51400 | -3.17064 | 10865 ft | 297 kts | 3° |
| 2026-05-06 19:06 | 55.53450 | -3.16741 | 10355 ft | 295 kts | 3° |
| 2026-05-06 19:06 | 55.55485 | -3.16420 | 9863 ft | 293 kts | 3° |
| 2026-05-06 19:06 | 55.57509 | -3.16100 | 9339 ft | 290 kts | 4° |
| 2026-05-06 19:06 | 55.59514 | -3.15779 | 8849 ft | 288 kts | 3° |
| 2026-05-06 19:07 | 55.61503 | -3.15465 | 8365 ft | 285 kts | 4° |
| 2026-05-06 19:07 | 55.63467 | -3.15157 | 7888 ft | 282 kts | 3° |
| 2026-05-06 19:07 | 55.65416 | -3.14852 | 7418 ft | 280 kts | 3° |
| 2026-05-06 19:07 | 55.67338 | -3.14548 | 7068 ft | 270 kts | 3° |
| 2026-05-06 19:08 | 55.69154 | -3.14662 | 6954 ft | 254 kts | 345° |
| 2026-05-06 19:08 | 55.70759 | -3.15835 | 7003 ft | 249 kts | 324° |
| 2026-05-06 19:08 | 55.72031 | -3.17887 | 6889 ft | 246 kts | 304° |
| 2026-05-06 19:08 | 55.72796 | -3.20554 | 6742 ft | 241 kts | 285° |
| 2026-05-06 19:09 | 55.73245 | -3.23397 | 6606 ft | 243 kts | 284° |
| 2026-05-06 19:09 | 55.73699 | -3.26286 | 6467 ft | 242 kts | 284° |
| 2026-05-06 19:09 | 55.74150 | -3.29165 | 6325 ft | 243 kts | 284° |
| 2026-05-06 19:09 | 55.74605 | -3.32059 | 6183 ft | 243 kts | 284° |
| 2026-05-06 19:10 | 55.75062 | -3.34942 | 6040 ft | 243 kts | 284° |
| 2026-05-06 19:10 | 55.75517 | -3.37826 | 5905 ft | 242 kts | 284° |
| 2026-05-06 19:10 | 55.75970 | -3.40710 | 5768 ft | 241 kts | 284° |
| 2026-05-06 19:10 | 55.76420 | -3.43582 | 5615 ft | 241 kts | 284° |
| 2026-05-06 19:11 | 55.76879 | -3.46445 | 5220 ft | 244 kts | 288° |
| 2026-05-06 19:11 | 55.77841 | -3.49024 | 4616 ft | 260 kts | 314° |
| 2026-05-06 19:11 | 55.79282 | -3.51025 | 4169 ft | 265 kts | 327° |
| 2026-05-06 19:11 | 55.80867 | -3.52646 | 3989 ft | 256 kts | 329° |
| 2026-05-06 19:12 | 55.82354 | -3.54105 | 3995 ft | 232 kts | 329° |
| 2026-05-06 19:12 | 55.83710 | -3.55392 | 4001 ft | 213 kts | 335° |
| 2026-05-06 19:12 | 55.85123 | -3.56085 | 4009 ft | 208 kts | 348° |
| 2026-05-06 19:12 | 55.86513 | -3.56300 | 4029 ft | 192 kts | 4° |
| 2026-05-06 19:13 | 55.87736 | -3.55741 | 3903 ft | 180 kts | 30° |
| 2026-05-06 19:13 | 55.88642 | -3.54208 | 3317 ft | 187 kts | 58° |
| 2026-05-06 19:13 | 55.89317 | -3.52186 | 2697 ft | 189 kts | 56° |
| 2026-05-06 19:13 | 55.90170 | -3.50493 | 2233 ft | 178 kts | 48° |
| 2026-05-06 19:14 | 55.90976 | -3.48830 | 1792 ft | 177 kts | 55° |
| 2026-05-06 19:14 | 55.91693 | -3.47068 | 1345 ft | 173 kts | 59° |
| 2026-05-06 19:14 | 55.92307 | -3.45350 | 1102 ft | 152 kts | 62° |
| 2026-05-06 19:14 | 55.92807 | -3.43760 | 795 ft | 141 kts | 64° |
| 2026-05-06 19:15 | 55.93278 | -3.42277 | 619 ft | 135 kts | 62° |
| 2026-05-06 19:15 | 55.93780 | -3.40875 | 393 ft | 134 kts | 62° |
| 2026-05-06 19:15 | 55.94257 | -3.39463 | 213 ft | 133 kts | 63° |
| 2026-05-06 19:15 | 55.94711 | -3.38089 | 113 ft | 115 kts | 59° |
| 2026-05-06 19:16 | 55.95049 | -3.37102 | 106 ft | 75 kts | 59° |
| 2026-05-06 19:16 | 55.95246 | -3.36514 | 103 ft | 25 kts | 58° |
| 2026-05-06 19:16 | 55.95225 | -3.36387 | 102 ft | 10 kts | 146° |
| 2026-05-06 19:16 | 55.95178 | -3.36332 | 103 ft | 7 kts | 148° |
| 2026-05-06 19:17 | 55.95132 | -3.36314 | 104 ft | 7 kts | 198° |
| 2026-05-06 19:17 | 55.95098 | -3.36378 | 106 ft | 7 kts | 227° |
| 2026-05-06 19:17 | 55.95056 | -3.36386 | 107 ft | 7 kts | 157° |
| 2026-05-06 19:17 | 55.95005 | -3.36424 | 107 ft | 10 kts | 232° |
| 2026-05-06 19:18 | 55.94964 | -3.36545 | 105 ft | 11 kts | 239° |
| 2026-05-06 19:18 | 55.94928 | -3.36607 | 107 ft | 7 kts | 172° |
| 2026-05-06 19:18 | 55.94890 | -3.36558 | 106 ft | 4 kts | 148° |
| 2026-05-06 19:18 | 55.94878 | -3.36545 | 107 ft | 0 kts | 149° |